General Aviation Weather

Text Reports

Enter one or more of the following location identifiers separated by a space:

Zip Code, Four-Character ICAO or Three-Character IATA airport codes.

METAR - Aviation Routine Weather Report
KDUH - Lambertville, Michigan
Updated at 9:15 PM GMT on February 14, 2016 (4:15 PM EST):
METAR KDUH 142115Z AUTO 14006KT 10SM CLR M07/M14 A3031 RMK AO2 T10751144
TAF - Terminal Area Forecast
KDUH - Lambertville, Michigan
Updated at 9:15 PM GMT on February 14, 2016 (4:15 PM EST):
No TAF is currently available for this location.
Decoded:
No decoded TAF is available.
PIREP - Pilot Weather Report
KDUH - Lambertville, Michigan
Updated at 9:15 PM GMT on February 14, 2016 (4:15 PM EST):
No PIREP is currently available for this location.
AIRMET - Airmens Meteorological Information
KDUH - Lambertville, Michigan
Updated at 9:15 PM GMT on February 14, 2016 (4:15 PM EST):
No AIRMET is currently available for this location.
SIGMET - Significant Meteorological Information
KDUH - Lambertville, Michigan
Updated at 9:15 PM GMT on February 14, 2016 (4:15 PM EST):
No SIGMET is currently available for this location.
NOTAM - Notice to Airmen
KDUH - Lambertville, Michigan
Updated at 9:15 PM GMT on February 14, 2016 (4:15 PM EST):
No NOTAM is currently available for this location.
Forecast Area
KDUH - Lambertville, Michigan
Updated at 9:15 PM GMT on February 14, 2016 (4:15 PM EST):
No NOTAM is currently available for this location.
Aviation Weather Maps